Time;durP1;ratioP1;P1;durP2;ratioP2;P2;SDS_P1;SDS_P2;PMS_P1;PMS_P2;Temp;Humidity;BMP_temperature;BMP_pressure;BME280_temperature;BME280_humidity;BME280_pressure;Samples;Min_cycle;Max_cycle;Signal;HPM_P1;HPM_P2
2023/01/07 00:02:11;;;;;;;1.98;1.60;;;;;;;;;;5074574;28;20035;-79
2023/01/07 00:04:36;;;;;;;3.22;1.80;;;;;;;;;;5093205;28;20093;-79
2023/01/07 00:07:02;;;;;;;2.05;1.33;;;;;;;;;;5093532;28;20063;-78
2023/01/07 00:09:27;;;;;;;1.52;1.42;;;;;;;;;;5075241;28;20095;-78
2023/01/07 00:11:52;;;;;;;2.03;1.42;;;;;;;;;;5092913;28;20040;-78
2023/01/07 00:14:18;;;;;;;1.85;1.52;;;;;;;;;;5074946;28;20036;-78
2023/01/07 00:16:43;;;;;;;2.05;1.40;;;;;;;;;;5093112;28;20038;-78
2023/01/07 00:19:13;;;;;;;1.88;1.40;;;;;;;;;;5093062;28;20474;-78
2023/01/07 00:21:39;;;;;;;3.25;1.48;;;;;;;;;;5093023;28;20020;-79
2023/01/07 00:24:05;;;;;;;1.30;1.20;;;;;;;;;;5074969;28;20034;-78
2023/01/07 00:26:35;;;;;;;1.55;1.45;;;;;;;;;;5074650;28;20119;-79
2023/01/07 00:29:01;;;;;;;2.00;1.45;;;;;;;;;;5074832;28;20028;-79
2023/01/07 00:31:29;;;;;;;3.05;1.48;;;;;;;;;;5057950;28;20020;-79
2023/01/07 00:36:25;;;;;;;1.60;1.30;;;;;;;;;;5092808;28;20114;-79
2023/01/07 00:39:06;;;;;;;2.65;1.50;;;;;;;;;;5075209;28;20446;-78
2023/01/07 00:41:31;;;;;;;2.45;1.40;;;;;;;;;;5075411;28;20016;-79
2023/01/07 00:43:56;;;;;;;1.60;1.50;;;;;;;;;;5075323;28;20445;-79
2023/01/07 00:46:22;;;;;;;1.38;1.27;;;;;;;;;;5093251;28;20020;-79
2023/01/07 00:48:47;;;;;;;2.10;1.40;;;;;;;;;;5074850;28;20049;-78
2023/01/07 00:51:14;;;;;;;1.40;1.30;;;;;;;;;;5074671;28;20032;-78
2023/01/07 00:53:40;;;;;;;1.52;1.30;;;;;;;;;;5074587;28;20082;-78
2023/01/07 00:56:06;;;;;;;2.22;1.60;;;;;;;;;;5092822;28;20028;-79
2023/01/07 00:58:31;;;;;;;2.20;1.50;;;;;;;;;;5074537;28;20043;-78
2023/01/07 01:00:58;;;;;;;3.35;1.50;;;;;;;;;;5092655;28;20363;-79
2023/01/07 01:03:24;;;;;;;1.50;1.40;;;;;;;;;;5074626;28;20028;-78
2023/01/07 01:05:50;;;;;;;2.00;1.40;;;;;;;;;;5074506;28;20060;-78
2023/01/07 01:08:17;;;;;;;1.85;1.45;;;;;;;;;;5074532;28;20056;-79
2023/01/07 01:10:43;;;;;;;1.30;1.20;;;;;;;;;;5057866;28;20048;-78
2023/01/07 01:13:14;;;;;;;3.78;1.50;;;;;;;;;;5076710;28;20055;-78
2023/01/07 01:15:44;;;;;;;2.22;1.30;;;;;;;;;;5078090;28;20028;-79
2023/01/07 01:18:10;;;;;;;1.52;1.30;;;;;;;;;;5061679;28;20024;-79
2023/01/07 01:20:35;;;;;;;1.30;1.20;;;;;;;;;;5078386;28;20020;-78
2023/01/07 01:23:00;;;;;;;1.60;1.50;;;;;;;;;;5096444;28;20038;-79
2023/01/07 01:25:26;;;;;;;2.08;1.20;;;;;;;;;;5077851;28;20035;-79
2023/01/07 01:27:51;;;;;;;1.75;1.40;;;;;;;;;;5096378;28;20032;-79
2023/01/07 01:30:16;;;;;;;1.60;1.33;;;;;;;;;;5078091;28;20040;-78
2023/01/07 01:32:42;;;;;;;1.40;1.30;;;;;;;;;;5096070;28;20494;-78
2023/01/07 01:35:07;;;;;;;1.55;1.42;;;;;;;;;;5096102;28;20024;-78
2023/01/07 01:37:33;;;;;;;2.60;1.38;;;;;;;;;;5077917;28;20035;-79
2023/01/07 01:40:02;;;;;;;3.28;1.73;;;;;;;;;;5077885;28;20067;-78
2023/01/07 01:42:28;;;;;;;2.45;1.45;;;;;;;;;;5095963;28;20024;-79
2023/01/07 01:44:56;;;;;;;1.40;1.30;;;;;;;;;;5077989;28;20047;-79
2023/01/07 01:47:24;;;;;;;2.08;1.30;;;;;;;;;;5060993;28;20020;-78
2023/01/07 01:49:55;;;;;;;2.25;1.40;;;;;;;;;;5095796;28;20035;-79
2023/01/07 01:52:23;;;;;;;2.22;1.40;;;;;;;;;;5095603;28;20094;-78
2023/01/07 01:54:51;;;;;;;3.35;1.60;;;;;;;;;;5096124;28;20036;-79
2023/01/07 01:57:18;;;;;;;2.13;1.45;;;;;;;;;;5095890;28;20026;-78
2023/01/07 01:59:45;;;;;;;2.50;1.38;;;;;;;;;;5078605;28;20266;-80
2023/01/07 02:02:11;;;;;;;1.50;1.40;;;;;;;;;;5078043;28;20180;-80
2023/01/07 02:04:37;;;;;;;1.73;1.38;;;;;;;;;;5060724;28;20035;-80
2023/01/07 02:07:09;;;;;;;1.42;1.30;;;;;;;;;;5077382;28;20036;-78
2023/01/07 02:09:34;;;;;;;3.80;1.67;;;;;;;;;;5077217;28;20082;-79
2023/01/07 02:12:03;;;;;;;4.18;1.80;;;;;;;;;;5095552;28;20028;-79
2023/01/07 02:14:31;;;;;;;1.98;1.20;;;;;;;;;;5077066;28;20024;-79
2023/01/07 02:17:09;;;;;;;2.38;1.52;;;;;;;;;;5095794;28;20031;-79
2023/01/07 02:20:02;;;;;;;2.58;1.70;;;;;;;;;;5077132;28;20032;-79
2023/01/07 02:23:01;;;;;;;1.63;1.33;;;;;;;;;;5095242;28;20038;-79
2023/01/07 02:25:36;;;;;;;1.95;1.70;;;;;;;;;;5059453;28;20035;-79
2023/01/07 02:28:20;;;;;;;1.63;1.52;;;;;;;;;;5095162;28;20539;-79
2023/01/07 02:31:10;;;;;;;2.33;1.55;;;;;;;;;;5094929;28;20051;-79
2023/01/07 02:33:38;;;;;;;2.80;1.40;;;;;;;;;;5095222;28;20161;-80
2023/01/07 02:36:18;;;;;;;1.58;1.40;;;;;;;;;;5094940;28;20028;-79
2023/01/07 02:39:12;;;;;;;2.45;1.60;;;;;;;;;;5076944;28;20036;-79
2023/01/07 02:42:07;;;;;;;2.17;1.65;;;;;;;;;;5080246;28;20028;-80
2023/01/07 02:44:59;;;;;;;2.03;1.50;;;;;;;;;;5076670;28;20024;-80
2023/01/07 02:47:38;;;;;;;2.55;1.60;;;;;;;;;;5076470;28;20029;-79
2023/01/07 02:50:07;;;;;;;1.50;1.40;;;;;;;;;;5059845;28;20467;-78
2023/01/07 02:52:33;;;;;;;1.95;1.52;;;;;;;;;;5076510;28;20027;-78
2023/01/07 02:55:18;;;;;;;2.25;1.40;;;;;;;;;;5076417;28;20020;-78
2023/01/07 02:58:08;;;;;;;2.05;1.35;;;;;;;;;;5076339;28;20047;-78
2023/01/07 03:00:33;;;;;;;2.25;1.48;;;;;;;;;;5076285;28;20108;-79
2023/01/07 03:03:35;;;;;;;2.15;1.67;;;;;;;;;;5094378;28;20111;-80
2023/01/07 03:06:28;;;;;;;2.30;1.42;;;;;;;;;;5094267;28;20389;-78
2023/01/07 03:09:02;;;;;;;1.48;1.38;;;;;;;;;;5094945;28;20034;-79
2023/01/07 03:11:41;;;;;;;1.73;1.45;;;;;;;;;;5093921;28;20515;-80
2023/01/07 03:14:19;;;;;;;2.08;1.25;;;;;;;;;;5076036;28;20024;-80
2023/01/07 03:16:59;;;;;;;1.95;1.60;;;;;;;;;;5059403;28;20036;-80
2023/01/07 03:19:28;;;;;;;1.38;1.20;;;;;;;;;;5075896;28;20031;-80
2023/01/07 03:21:55;;;;;;;3.17;1.30;;;;;;;;;;5075841;28;20043;-80
2023/01/07 03:24:21;;;;;;;4.10;1.75;;;;;;;;;;5075820;28;20397;-78
2023/01/07 03:26:48;;;;;;;2.55;1.70;;;;;;;;;;5093729;28;20028;-80
2023/01/07 03:29:14;;;;;;;1.58;1.40;;;;;;;;;;5075694;28;20093;-80
2023/01/07 03:31:53;;;;;;;1.42;1.33;;;;;;;;;;5075941;28;20421;-80
2023/01/07 03:34:20;;;;;;;2.03;1.30;;;;;;;;;;5075577;28;20024;-80
2023/01/07 03:36:51;;;;;;;1.73;1.45;;;;;;;;;;5074905;28;20061;-80
2023/01/07 03:39:17;;;;;;;2.05;1.60;;;;;;;;;;5075858;28;20032;-80
2023/01/07 03:44:27;;;;;;;2.90;1.73;;;;;;;;;;5078405;28;20066;-78
2023/01/07 03:46:52;;;;;;;3.22;1.40;;;;;;;;;;5093570;28;20378;-78
2023/01/07 03:49:18;;;;;;;2.40;1.52;;;;;;;;;;5094227;28;20031;-78
2023/01/07 03:51:44;;;;;;;1.73;1.33;;;;;;;;;;5075189;28;20032;-78
2023/01/07 03:54:10;;;;;;;2.60;1.60;;;;;;;;;;5075911;28;20031;-78
2023/01/07 03:56:35;;;;;;;2.10;1.50;;;;;;;;;;5058856;28;20028;-80
2023/01/07 03:59:01;;;;;;;2.28;1.60;;;;;;;;;;5093319;28;20035;-80
2023/01/07 04:01:26;;;;;;;2.40;1.40;;;;;;;;;;5075139;28;20489;-80
2023/01/07 04:03:51;;;;;;;3.70;1.60;;;;;;;;;;5093325;28;20051;-80
2023/01/07 04:06:17;;;;;;;3.25;1.60;;;;;;;;;;5058347;28;20039;-78
2023/01/07 04:08:42;;;;;;;2.10;1.60;;;;;;;;;;5093816;28;20095;-80
2023/01/07 04:11:07;;;;;;;2.90;1.45;;;;;;;;;;5092747;28;20051;-80
2023/01/07 04:13:33;;;;;;;2.08;1.30;;;;;;;;;;5058537;28;20575;-79
2023/01/07 04:15:58;;;;;;;3.83;1.50;;;;;;;;;;5074887;28;20042;-79
2023/01/07 04:18:23;;;;;;;3.85;1.30;;;;;;;;;;5093132;28;20035;-79
2023/01/07 04:20:49;;;;;;;2.00;1.40;;;;;;;;;;5074784;28;20386;-79
2023/01/07 04:23:15;;;;;;;2.17;1.25;;;;;;;;;;5093279;28;20155;-79
2023/01/07 04:25:41;;;;;;;1.30;1.20;;;;;;;;;;5075073;28;20374;-79
2023/01/07 04:28:06;;;;;;;1.98;1.33;;;;;;;;;;5058232;28;20027;-79
2023/01/07 04:30:32;;;;;;;2.05;1.30;;;;;;;;;;5074802;28;20028;-79
2023/01/07 04:32:59;;;;;;;2.15;1.42;;;;;;;;;;5093082;28;20032;-79
2023/01/07 04:35:24;;;;;;;2.03;1.33;;;;;;;;;;5092854;28;20459;-79
2023/01/07 04:37:49;;;;;;;2.13;1.35;;;;;;;;;;5075374;28;20114;-79
2023/01/07 04:40:15;;;;;;;2.80;1.70;;;;;;;;;;5092769;28;20037;-79
2023/01/07 04:42:40;;;;;;;3.85;1.70;;;;;;;;;;5092774;28;20105;-79
2023/01/07 04:45:06;;;;;;;1.80;1.27;;;;;;;;;;5092734;28;20028;-79
2023/01/07 04:47:32;;;;;;;1.40;1.30;;;;;;;;;;5093980;28;20032;-79
2023/01/07 04:49:57;;;;;;;3.13;1.20;;;;;;;;;;5097196;28;20031;-79
2023/01/07 04:52:23;;;;;;;1.85;1.20;;;;;;;;;;5096908;28;20069;-79
2023/01/07 04:54:48;;;;;;;1.60;1.30;;;;;;;;;;5078991;28;20066;-79
2023/01/07 04:57:13;;;;;;;1.52;1.20;;;;;;;;;;5078598;28;20324;-79
2023/01/07 04:59:39;;;;;;;3.42;1.40;;;;;;;;;;5078682;28;20024;-79
2023/01/07 05:02:04;;;;;;;1.63;1.33;;;;;;;;;;5097286;28;20442;-79
2023/01/07 05:04:29;;;;;;;1.95;1.33;;;;;;;;;;5079138;28;20032;-79
2023/01/07 05:06:55;;;;;;;4.22;1.73;;;;;;;;;;5097407;28;20093;-79
2023/01/07 05:09:20;;;;;;;2.03;1.30;;;;;;;;;;5097370;28;20039;-79
2023/01/07 05:11:45;;;;;;;4.13;1.42;;;;;;;;;;5045601;28;20048;-79
2023/01/07 05:14:11;;;;;;;1.80;1.23;;;;;;;;;;5079071;28;20471;-79
2023/01/07 05:16:36;;;;;;;1.50;1.20;;;;;;;;;;5062320;28;20099;-79
2023/01/07 05:19:02;;;;;;;1.73;1.23;;;;;;;;;;5097029;28;20550;-79
2023/01/07 05:21:27;;;;;;;3.38;1.40;;;;;;;;;;5079350;28;20031;-79
2023/01/07 05:23:52;;;;;;;2.17;1.13;;;;;;;;;;5096898;28;20081;-79
2023/01/07 05:26:18;;;;;;;1.30;1.20;;;;;;;;;;5078685;28;20032;-79
2023/01/07 05:28:44;;;;;;;1.42;1.23;;;;;;;;;;5078878;28;20119;-79
2023/01/07 05:31:09;;;;;;;1.35;1.25;;;;;;;;;;5078755;28;20155;-79
2023/01/07 05:33:34;;;;;;;1.33;1.23;;;;;;;;;;5097115;28;20039;-79
2023/01/07 05:36:00;;;;;;;1.85;1.30;;;;;;;;;;5096705;28;20547;-79
2023/01/07 05:38:25;;;;;;;3.08;1.20;;;;;;;;;;5078833;28;20131;-79
2023/01/07 05:40:51;;;;;;;2.75;1.17;;;;;;;;;;5078519;28;20032;-79
2023/01/07 05:43:16;;;;;;;1.55;1.30;;;;;;;;;;5096931;28;20482;-79
2023/01/07 05:45:45;;;;;;;1.27;1.17;;;;;;;;;;5078563;28;20117;-79
2023/01/07 05:48:11;;;;;;;2.20;1.55;;;;;;;;;;5078570;28;20467;-79
2023/01/07 05:50:37;;;;;;;1.20;1.10;;;;;;;;;;5078531;28;20020;-79
2023/01/07 05:53:02;;;;;;;1.58;1.25;;;;;;;;;;5078813;28;20043;-79
2023/01/07 05:55:27;;;;;;;2.15;1.38;;;;;;;;;;5096579;28;20039;-79
2023/01/07 05:57:53;;;;;;;1.88;1.20;;;;;;;;;;5078645;28;20032;-79
2023/01/07 06:00:18;;;;;;;1.25;1.15;;;;;;;;;;5095480;28;20391;-79
2023/01/07 06:02:44;;;;;;;1.85;1.25;;;;;;;;;;5078306;28;20028;-78
2023/01/07 06:05:09;;;;;;;3.05;1.40;;;;;;;;;;5078529;28;20028;-79
2023/01/07 06:07:35;;;;;;;2.25;1.40;;;;;;;;;;5078572;28;20042;-79
2023/01/07 06:10:01;;;;;;;1.50;1.10;;;;;;;;;;5078038;28;20028;-79
2023/01/07 06:12:26;;;;;;;1.40;1.20;;;;;;;;;;5078020;28;20123;-79
2023/01/07 06:14:51;;;;;;;3.45;1.50;;;;;;;;;;5096018;28;20028;-79
2023/01/07 06:17:17;;;;;;;1.67;1.20;;;;;;;;;;5095976;28;20036;-79
2023/01/07 06:19:42;;;;;;;2.92;1.55;;;;;;;;;;5095965;28;20020;-80
2023/01/07 06:22:08;;;;;;;2.10;1.05;;;;;;;;;;5095555;28;20024;-80
2023/01/07 06:24:33;;;;;;;1.13;1.02;;;;;;;;;;5095957;28;20466;-80
2023/01/07 06:26:58;;;;;;;2.67;1.30;;;;;;;;;;5077157;28;20034;-79
2023/01/07 06:29:24;;;;;;;1.27;1.17;;;;;;;;;;5095507;28;20043;-79
2023/01/07 06:31:49;;;;;;;3.03;1.23;;;;;;;;;;5095524;28;20482;-79
2023/01/07 06:34:14;;;;;;;1.50;1.20;;;;;;;;;;5095395;28;20028;-80
2023/01/07 06:36:40;;;;;;;1.50;1.10;;;;;;;;;;5095678;28;20020;-79
2023/01/07 06:39:05;;;;;;;0.93;0.93;;;;;;;;;;5076983;28;20134;-79
2023/01/07 06:41:30;;;;;;;1.20;1.10;;;;;;;;;;5095438;28;20478;-80
2023/01/07 06:43:56;;;;;;;4.43;1.13;;;;;;;;;;5077374;28;20038;-79
2023/01/07 06:46:21;;;;;;;1.38;1.27;;;;;;;;;;5077437;28;20047;-79
2023/01/07 06:48:47;;;;;;;1.20;1.08;;;;;;;;;;5077617;28;20032;-79
2023/01/07 06:51:12;;;;;;;1.95;1.17;;;;;;;;;;5095463;28;20039;-79
2023/01/07 06:53:38;;;;;;;2.00;1.20;;;;;;;;;;5077233;28;20032;-79
2023/01/07 06:56:03;;;;;;;1.80;1.10;;;;;;;;;;5096572;28;20386;-80
2023/01/07 06:58:29;;;;;;;2.08;1.40;;;;;;;;;;5096821;28;20032;-78
2023/01/07 07:00:54;;;;;;;3.47;1.48;;;;;;;;;;5095880;28;20036;-79
2023/01/07 07:03:19;;;;;;;1.58;1.20;;;;;;;;;;5095430;28;20051;-78
2023/01/07 07:05:45;;;;;;;1.35;1.10;;;;;;;;;;5077010;28;20115;-78
2023/01/07 07:08:11;;;;;;;2.20;1.20;;;;;;;;;;5077133;28;20028;-78
2023/01/07 07:10:36;;;;;;;4.30;1.30;;;;;;;;;;5094442;28;20040;-79
2023/01/07 07:13:01;;;;;;;1.30;1.20;;;;;;;;;;5094869;28;20115;-79
2023/01/07 07:15:27;;;;;;;1.95;1.10;;;;;;;;;;5076757;28;20044;-79
2023/01/07 07:17:52;;;;;;;2.58;1.42;;;;;;;;;;5039650;28;20570;-77
2023/01/07 07:20:17;;;;;;;1.63;1.23;;;;;;;;;;5056632;28;20043;-79
2023/01/07 07:22:47;;;;;;;2.88;1.17;;;;;;;;;;5056486;28;20104;-78
2023/01/07 07:25:13;;;;;;;1.40;1.10;;;;;;;;;;5056717;28;20025;-78
2023/01/07 07:27:38;;;;;;;2.22;1.20;;;;;;;;;;5056263;28;20035;-79
2023/01/07 07:30:04;;;;;;;3.08;1.13;;;;;;;;;;5074083;28;20032;-78
2023/01/07 07:32:30;;;;;;;2.25;1.25;;;;;;;;;;5056105;28;20548;-79
2023/01/07 07:34:55;;;;;;;3.92;1.10;;;;;;;;;;5073494;28;20111;-77
2023/01/07 07:37:21;;;;;;;2.03;1.20;;;;;;;;;;5055484;28;20059;-77
2023/01/07 07:39:46;;;;;;;2.53;1.38;;;;;;;;;;5055306;28;20111;-77
2023/01/07 07:42:12;;;;;;;2.05;1.08;;;;;;;;;;5073312;28;20044;-78
2023/01/07 07:44:37;;;;;;;1.30;1.10;;;;;;;;;;5073164;28;20032;-79
2023/01/07 07:47:03;;;;;;;0.90;0.90;;;;;;;;;;5073218;28;20427;-78
2023/01/07 07:49:28;;;;;;;2.88;1.13;;;;;;;;;;5073038;28;20490;-78
2023/01/07 07:51:53;;;;;;;1.48;1.08;;;;;;;;;;5073162;28;20024;-78
2023/01/07 07:54:19;;;;;;;1.83;1.00;;;;;;;;;;5073233;28;20051;-78
2023/01/07 07:56:44;;;;;;;2.95;1.40;;;;;;;;;;5055345;28;20055;-78
2023/01/07 07:59:10;;;;;;;1.13;1.05;;;;;;;;;;5072988;28;20074;-78
2023/01/07 08:01:35;;;;;;;2.17;1.20;;;;;;;;;;5072972;28;20538;-77
2023/01/07 08:04:01;;;;;;;14.23;1.85;;;;;;;;;;5072822;28;20035;-78
2023/01/07 08:06:26;;;;;;;3.28;1.02;;;;;;;;;;5054665;28;20024;-79
2023/01/07 08:08:51;;;;;;;1.60;0.93;;;;;;;;;;5073501;28;20043;-80
2023/01/07 08:11:17;;;;;;;5.10;1.50;;;;;;;;;;5054948;28;20048;-79
2023/01/07 08:13:42;;;;;;;2.28;1.38;;;;;;;;;;5055120;28;20165;-80
2023/01/07 08:16:07;;;;;;;20.55;1.65;;;;;;;;;;5038484;28;20028;-79
2023/01/07 08:18:33;;;;;;;2.85;1.20;;;;;;;;;;5055032;28;20077;-79
2023/01/07 08:20:58;;;;;;;3.42;1.38;;;;;;;;;;5072790;28;20398;-79
2023/01/07 08:23:26;;;;;;;5.50;1.40;;;;;;;;;;5054293;28;20083;-79
2023/01/07 08:25:52;;;;;;;3.88;1.52;;;;;;;;;;5055087;28;20441;-79
2023/01/07 08:28:18;;;;;;;13.50;1.77;;;;;;;;;;5054291;28;20035;-78
2023/01/07 08:30:43;;;;;;;5.32;1.48;;;;;;;;;;5072442;28;20061;-79
2023/01/07 08:33:09;;;;;;;7.47;1.50;;;;;;;;;;5054657;28;20127;-78
2023/01/07 08:35:34;;;;;;;8.65;1.50;;;;;;;;;;5054533;28;20449;-78
2023/01/07 08:38:02;;;;;;;9.98;1.38;;;;;;;;;;5072783;28;20025;-78
2023/01/07 08:40:27;;;;;;;5.43;1.65;;;;;;;;;;5054764;28;20033;-79
2023/01/07 08:42:56;;;;;;;4.97;1.55;;;;;;;;;;5072670;28;20020;-79
2023/01/07 08:45:22;;;;;;;6.57;1.85;;;;;;;;;;5072576;28;20029;-78
2023/01/07 08:47:47;;;;;;;3.33;1.52;;;;;;;;;;5038040;28;20024;-78
2023/01/07 08:50:13;;;;;;;6.28;1.30;;;;;;;;;;5072516;28;20059;-78
2023/01/07 08:52:39;;;;;;;3.28;1.20;;;;;;;;;;5054493;28;20033;-78
2023/01/07 08:55:05;;;;;;;3.65;1.20;;;;;;;;;;5090455;28;20032;-80
2023/01/07 08:57:30;;;;;;;4.15;1.35;;;;;;;;;;5074628;28;20028;-80
2023/01/07 08:59:56;;;;;;;5.05;1.58;;;;;;;;;;5074681;28;20080;-81
2023/01/07 09:02:21;;;;;;;10.98;2.30;;;;;;;;;;5092604;28;20024;-79
2023/01/07 09:04:47;;;;;;;11.73;3.60;;;;;;;;;;5092349;28;20531;-79
2023/01/07 09:07:12;;;;;;;19.60;3.13;;;;;;;;;;5092617;28;20024;-78
2023/01/07 09:09:38;;;;;;;13.13;2.42;;;;;;;;;;5092572;28;20032;-79
2023/01/07 09:12:04;;;;;;;17.92;3.20;;;;;;;;;;5074056;28;20245;-78
2023/01/07 09:14:30;;;;;;;7.82;2.42;;;;;;;;;;5057765;28;20471;-79
2023/01/07 09:16:55;;;;;;;6.80;2.47;;;;;;;;;;5094308;28;20039;-78
2023/01/07 09:19:21;;;;;;;6.70;2.33;;;;;;;;;;5057821;28;20024;-78
2023/01/07 09:21:46;;;;;;;21.15;2.85;;;;;;;;;;5092475;28;20432;-78
2023/01/07 09:24:12;;;;;;;13.68;4.18;;;;;;;;;;5092481;28;20030;-79
2023/01/07 09:26:37;;;;;;;11.95;2.70;;;;;;;;;;5057734;28;20028;-78
2023/01/07 09:29:03;;;;;;;8.63;2.65;;;;;;;;;;5057799;28;20036;-78
2023/01/07 09:31:28;;;;;;;10.05;3.00;;;;;;;;;;5074458;28;20024;-77
2023/01/07 09:33:54;;;;;;;10.98;3.65;;;;;;;;;;5094020;28;20067;-79
2023/01/07 09:36:20;;;;;;;7.97;3.35;;;;;;;;;;5096183;28;20398;-78
2023/01/07 09:38:45;;;;;;;11.40;3.95;;;;;;;;;;5044825;28;20458;-79
2023/01/07 09:41:51;;;;;;;10.27;3.88;;;;;;;;;;5061172;28;20034;-78
2023/01/07 09:44:37;;;;;;;9.95;4.30;;;;;;;;;;5061238;28;20051;-79
2023/01/07 09:47:04;;;;;;;14.40;4.25;;;;;;;;;;5077253;28;20672;-79
2023/01/07 09:49:32;;;;;;;10.18;3.85;;;;;;;;;;5077326;28;20059;-78
2023/01/07 09:52:22;;;;;;;12.13;4.03;;;;;;;;;;5095926;28;20024;-77
2023/01/07 09:54:51;;;;;;;11.95;4.10;;;;;;;;;;5061085;28;20024;-78
2023/01/07 09:57:16;;;;;;;11.40;4.10;;;;;;;;;;5077538;28;20482;-78
2023/01/07 09:59:43;;;;;;;16.25;4.35;;;;;;;;;;5077639;28;20034;-77
2023/01/07 10:02:34;;;;;;;16.45;4.43;;;;;;;;;;5077654;28;20028;-80
2023/01/07 10:05:57;;;;;;;7.85;4.00;;;;;;;;;;5077743;28;20103;-79
2023/01/07 10:08:40;;;;;;;10.68;4.30;;;;;;;;;;4996977;28;20104;-79
2023/01/07 10:11:27;;;;;;;15.20;3.85;;;;;;;;;;5013433;28;20054;-79
2023/01/07 10:14:21;;;;;;;10.93;3.40;;;;;;;;;;5013222;28;20073;-80
2023/01/07 10:17:30;;;;;;;10.88;4.05;;;;;;;;;;4990917;28;20057;-79
2023/01/07 10:20:16;;;;;;;5.97;3.70;;;;;;;;;;4998404;28;20038;-79
2023/01/07 10:22:53;;;;;;;6.95;3.25;;;;;;;;;;4997106;28;20030;-78
2023/01/07 10:25:25;;;;;;;8.85;3.28;;;;;;;;;;5013438;28;20129;-79
2023/01/07 10:27:52;;;;;;;8.00;3.15;;;;;;;;;;4997048;28;20520;-80
2023/01/07 10:30:21;;;;;;;11.80;3.72;;;;;;;;;;4980800;28;20111;-78
2023/01/07 10:32:56;;;;;;;9.38;3.40;;;;;;;;;;4997279;28;20046;-79
2023/01/07 10:35:22;;;;;;;11.27;3.95;;;;;;;;;;4981461;28;20036;-78
2023/01/07 10:37:48;;;;;;;13.10;3.70;;;;;;;;;;4996840;28;20532;-78
2023/01/07 10:40:36;;;;;;;8.02;3.35;;;;;;;;;;5065547;28;20079;-80
2023/01/07 10:43:16;;;;;;;9.52;3.45;;;;;;;;;;5095188;28;20059;-79
2023/01/07 10:46:12;;;;;;;12.63;3.38;;;;;;;;;;5093861;28;20028;-79
2023/01/07 10:49:03;;;;;;;8.55;3.25;;;;;;;;;;5094598;28;20028;-80
2023/01/07 10:51:37;;;;;;;7.47;3.42;;;;;;;;;;5094895;28;20055;-80
2023/01/07 10:54:47;;;;;;;7.22;3.00;;;;;;;;;;5094912;28;20034;-79
2023/01/07 10:57:19;;;;;;;9.57;3.15;;;;;;;;;;4993090;28;20109;-78
2023/01/07 10:59:56;;;;;;;10.15;3.42;;;;;;;;;;4976878;28;20121;-78
2023/01/07 11:02:26;;;;;;;4.75;2.45;;;;;;;;;;4993140;28;20034;-80
2023/01/07 11:04:53;;;;;;;5.25;2.53;;;;;;;;;;4976697;28;20031;-79
2023/01/07 11:07:51;;;;;;;19.77;2.70;;;;;;;;;;4976959;28;20073;-79
2023/01/07 11:10:20;;;;;;;11.15;2.63;;;;;;;;;;4961708;28;20034;-81
2023/01/07 11:12:50;;;;;;;4.15;2.13;;;;;;;;;;4992992;28;20054;-79
2023/01/07 11:15:28;;;;;;;7.95;2.92;;;;;;;;;;4977141;28;20030;-79
2023/01/07 11:18:03;;;;;;;4.18;2.22;;;;;;;;;;4992982;28;20026;-79
2023/01/07 11:20:44;;;;;;;6.75;2.63;;;;;;;;;;4960669;28;20460;-78
2023/01/07 11:23:30;;;;;;;6.10;2.42;;;;;;;;;;5009577;28;20026;-83
2023/01/07 11:26:23;;;;;;;3.95;2.08;;;;;;;;;;4991736;28;20022;-81
2023/01/07 11:28:50;;;;;;;16.58;2.28;;;;;;;;;;5044727;28;20059;-83
2023/01/07 11:31:16;;;;;;;6.68;1.95;;;;;;;;;;5074875;28;20028;-87
2023/01/07 11:33:48;;;;;;;3.83;1.92;;;;;;;;;;5083245;28;20093;-81
2023/01/07 11:36:14;;;;;;;4.25;1.85;;;;;;;;;;5060820;28;20029;-83
2023/01/07 11:38:39;;;;;;;8.23;1.92;;;;;;;;;;5090653;28;20050;-79
2023/01/07 11:41:08;;;;;;;2.78;1.70;;;;;;;;;;5074277;28;20031;-79
2023/01/07 11:43:37;;;;;;;16.65;2.30;;;;;;;;;;5075970;28;20020;-78
2023/01/07 11:46:05;;;;;;;6.75;1.63;;;;;;;;;;5076236;28;20028;-79
2023/01/07 11:48:31;;;;;;;4.78;1.55;;;;;;;;;;5077194;28;20500;-79
2023/01/07 11:50:59;;;;;;;6.10;1.85;;;;;;;;;;5079989;28;20458;-79
2023/01/07 11:53:44;;;;;;;7.95;1.30;;;;;;;;;;5081106;28;20042;-78
2023/01/07 11:56:20;;;;;;;6.22;1.83;;;;;;;;;;5100202;28;20020;-79
2023/01/07 11:58:46;;;;;;;7.07;2.40;;;;;;;;;;5100255;28;20018;-79
2023/01/07 12:01:22;;;;;;;6.85;2.45;;;;;;;;;;5103618;28;20022;-80
2023/01/07 12:03:50;;;;;;;10.70;3.38;;;;;;;;;;5070329;28;20028;-79
2023/01/07 12:06:23;;;;;;;9.15;3.25;;;;;;;;;;5103758;28;20114;-80
2023/01/07 12:09:17;;;;;;;8.73;3.75;;;;;;;;;;5097258;28;20173;-78
2023/01/07 12:11:44;;;;;;;10.95;4.40;;;;;;;;;;5092676;28;20062;-78
2023/01/07 12:14:15;;;;;;;15.18;5.35;;;;;;;;;;5075748;28;20069;-78
2023/01/07 12:16:42;;;;;;;12.70;5.10;;;;;;;;;;5092799;28;20020;-78
2023/01/07 12:19:22;;;;;;;22.17;6.50;;;;;;;;;;5075433;28;20386;-77
2023/01/07 12:22:23;;;;;;;13.50;6.00;;;;;;;;;;5075213;28;20022;-78
2023/01/07 12:25:17;;;;;;;15.05;5.95;;;;;;;;;;5075652;28;20111;-79
2023/01/07 12:27:58;;;;;;;14.57;6.43;;;;;;;;;;5093474;28;20099;-79
2023/01/07 12:30:35;;;;;;;12.45;5.95;;;;;;;;;;5075495;28;20027;-79
2023/01/07 12:33:27;;;;;;;26.58;6.88;;;;;;;;;;5093660;28;20031;-81
2023/01/07 12:35:56;;;;;;;13.02;6.07;;;;;;;;;;5050242;28;20553;-79
2023/01/07 12:38:26;;;;;;;16.40;6.53;;;;;;;;;;5094192;28;20036;-79
2023/01/07 12:40:57;;;;;;;11.20;5.72;;;;;;;;;;5093526;28;20023;-79
2023/01/07 12:43:38;;;;;;;17.77;6.25;;;;;;;;;;5075599;28;20027;-78
2023/01/07 12:46:06;;;;;;;14.77;6.18;;;;;;;;;;5075734;28;20028;-78
2023/01/07 12:49:01;;;;;;;11.45;5.55;;;;;;;;;;5075659;28;20098;-78
2023/01/07 12:51:34;;;;;;;;;;;;;;;;;;5083353;28;20040;-78
2023/01/07 12:54:33;;;;;;;11.25;5.05;;;;;;;;;;5075362;28;19943;-79
2023/01/07 12:57:05;;;;;;;9.48;5.05;;;;;;;;;;5035228;28;20036;-79
2023/01/07 13:00:00;;;;;;;11.77;5.55;;;;;;;;;;5093264;28;20020;-81
2023/01/07 13:02:47;;;;;;;14.82;5.22;;;;;;;;;;5075473;28;20473;-79
2023/01/07 13:05:35;;;;;;;9.38;4.38;;;;;;;;;;5098526;28;20378;-80
2023/01/07 13:08:25;;;;;;;10.35;4.03;;;;;;;;;;5074293;28;20038;-80
2023/01/07 13:10:57;;;;;;;9.70;4.22;;;;;;;;;;5113961;28;20044;-81
2023/01/07 13:13:39;;;;;;;7.90;3.65;;;;;;;;;;5084349;28;20024;-81
2023/01/07 13:16:08;;;;;;;11.02;3.90;;;;;;;;;;5080124;28;20020;-82
2023/01/07 13:18:33;;;;;;;4.90;3.00;;;;;;;;;;5080789;28;20471;-80
2023/01/07 13:21:08;;;;;;;10.02;3.33;;;;;;;;;;5098840;28;20026;-80
2023/01/07 13:23:46;;;;;;;6.10;3.40;;;;;;;;;;5081878;28;20020;-80
2023/01/07 13:26:42;;;;;;;3.78;2.60;;;;;;;;;;5098400;28;20028;-81
2023/01/07 13:29:28;;;;;;;9.55;3.03;;;;;;;;;;5097322;28;20367;-81
2023/01/07 13:31:56;;;;;;;6.53;2.45;;;;;;;;;;5079295;28;20020;-82
2023/01/07 13:34:24;;;;;;;4.30;2.60;;;;;;;;;;5097056;28;20028;-80
2023/01/07 13:37:11;;;;;;;6.22;2.20;;;;;;;;;;5078718;28;20023;-81
2023/01/07 13:40:07;;;;;;;2.45;1.90;;;;;;;;;;5096868;28;20040;-80
2023/01/07 13:42:35;;;;;;;5.53;1.95;;;;;;;;;;5096806;28;20123;-80
2023/01/07 13:45:28;;;;;;;3.83;1.90;;;;;;;;;;5096656;28;20386;-80
2023/01/07 13:47:56;;;;;;;3.22;1.80;;;;;;;;;;5095058;28;20537;-80
2023/01/07 13:50:41;;;;;;;5.28;2.28;;;;;;;;;;5078313;28;20051;-80
2023/01/07 13:53:26;;;;;;;3.88;2.00;;;;;;;;;;5078588;28;20020;-80
2023/01/07 13:55:53;;;;;;;4.55;1.70;;;;;;;;;;5096301;28;20111;-80
2023/01/07 13:58:28;;;;;;;2.20;1.58;;;;;;;;;;5096429;28;20038;-80
2023/01/07 14:01:01;;;;;;;1.70;1.52;;;;;;;;;;5096514;28;20023;-80
2023/01/07 14:03:26;;;;;;;1.90;1.50;;;;;;;;;;5096383;28;20020;-80
2023/01/07 14:06:19;;;;;;;3.28;1.60;;;;;;;;;;5096514;28;20038;-80
2023/01/07 14:08:52;;;;;;;2.35;1.70;;;;;;;;;;5096609;28;20040;-80
2023/01/07 14:11:19;;;;;;;1.63;1.40;;;;;;;;;;5086256;28;20055;-79
2023/01/07 14:13:53;;;;;;;2.08;1.40;;;;;;;;;;5058335;28;20033;-80
2023/01/07 14:16:45;;;;;;;1.75;1.60;;;;;;;;;;5041493;28;20107;-80
2023/01/07 14:19:35;;;;;;;2.33;1.50;;;;;;;;;;5058156;28;20509;-80
2023/01/07 14:22:06;;;;;;;2.17;1.13;;;;;;;;;;5057673;28;20020;-81
2023/01/07 14:24:41;;;;;;;2.17;1.40;;;;;;;;;;5075817;28;20016;-81
2023/01/07 14:27:21;;;;;;;2.35;1.20;;;;;;;;;;5075955;28;20074;-80
2023/01/07 14:29:48;;;;;;;1.77;1.27;;;;;;;;;;5057938;28;20538;-80
2023/01/07 14:32:19;;;;;;;2.38;1.50;;;;;;;;;;5057676;28;20051;-80
2023/01/07 14:34:55;;;;;;;2.50;1.27;;;;;;;;;;5057587;28;20036;-80
2023/01/07 14:37:35;;;;;;;1.70;1.27;;;;;;;;;;5075692;28;20037;-80
2023/01/07 14:40:27;;;;;;;1.35;1.15;;;;;;;;;;5040734;28;20035;-80
2023/01/07 14:42:56;;;;;;;2.05;1.25;;;;;;;;;;5075218;28;20030;-80
2023/01/07 14:45:40;;;;;;;1.55;1.27;;;;;;;;;;5057448;28;20066;-80
2023/01/07 14:48:11;;;;;;;1.30;1.20;;;;;;;;;;5075550;28;20055;-80
2023/01/07 14:50:49;;;;;;;1.80;1.52;;;;;;;;;;5075279;28;20020;-80
2023/01/07 14:53:14;;;;;;;3.03;1.45;;;;;;;;;;5057267;28;20036;-80
2023/01/07 14:56:04;;;;;;;3.53;1.40;;;;;;;;;;5075142;28;20023;-80
2023/01/07 14:59:07;;;;;;;1.83;1.40;;;;;;;;;;5075207;28;20085;-79
2023/01/07 15:01:32;;;;;;;2.50;1.35;;;;;;;;;;5075211;28;20021;-79
2023/01/07 15:04:35;;;;;;;1.75;1.40;;;;;;;;;;5075100;28;20112;-79
2023/01/07 15:07:01;;;;;;;1.42;1.30;;;;;;;;;;5074769;28;20024;-80
2023/01/07 15:18:05;;;;;;;3.00;1.30;;;;;;;;;;5059649;28;20028;-80
2023/01/07 15:20:42;;;;;;;5.70;1.60;;;;;;;;;;5056682;28;20490;-80